Time,TemperatureF,DewpointF,PressureIn,WindDirection,WindDirectionDegrees,WindSpeedMPH,WindSpeedGustMPH,Humidity,HourlyPrecipIn,Conditions,Clouds,dailyrainin,SoftwareType,DateUTC
2013-06-22 00:11:00,47.8,20.0,29.79,NW,320,1.0,6.0,33,0.00,,,0.00,weatherlink.com 1.10,2013-06-22 06:11:00,
2013-06-22 00:26:00,47.1,20.0,29.80,NW,314,0.0,4.0,34,0.00,,,0.00,weatherlink.com 1.10,2013-06-22 06:26:00,
2013-06-22 00:41:00,46.1,20.0,29.80,NW,315,2.0,6.0,35,0.00,,,0.00,weatherlink.com 1.10,2013-06-22 06:41:00,
2013-06-22 00:56:00,45.2,20.0,29.80,NW,309,4.0,6.0,37,0.00,,,0.00,weatherlink.com 1.10,2013-06-22 06:56:00,
2013-06-22 01:11:00,45.5,20.0,29.80,North,354,1.0,6.0,36,0.00,,,0.00,weatherlink.com 1.10,2013-06-22 07:11:00,
2013-06-22 01:26:00,44.6,20.0,29.80,NW,308,3.0,6.0,37,0.00,,,0.00,weatherlink.com 1.10,2013-06-22 07:26:00,
2013-06-22 01:41:00,44.0,19.0,29.79,NW,316,2.0,4.0,37,0.00,,,0.00,weatherlink.com 1.10,2013-06-22 07:41:00,
2013-06-22 01:56:00,43.5,19.0,29.79,WNW,288,1.0,3.0,38,0.00,,,0.00,weatherlink.com 1.10,2013-06-22 07:56:00,
2013-06-22 02:11:00,42.4,19.0,29.80,North,4,0.0,0.0,40,0.00,,,0.00,weatherlink.com 1.10,2013-06-22 08:11:00,
2013-06-22 02:26:00,41.0,19.0,29.80,North,11,0.0,0.0,41,0.00,,,0.00,weatherlink.com 1.10,2013-06-22 08:26:00,
2013-06-22 02:41:00,39.1,19.0,29.80,North,9,0.0,0.0,44,0.00,,,0.00,weatherlink.com 1.10,2013-06-22 08:41:00,
2013-06-22 02:56:00,38.8,19.0,29.80,North,9,0.0,0.0,46,0.00,,,0.00,weatherlink.com 1.10,2013-06-22 08:56:00,
2013-06-22 03:12:00,38.2,19.0,29.80,NNE,20,0.0,0.0,46,0.00,,,0.00,weatherlink.com 1.10,2013-06-22 09:12:00,
2013-06-22 03:27:00,36.7,20.0,29.80,NNE,20,0.0,0.0,52,0.00,,,0.00,weatherlink.com 1.10,2013-06-22 09:27:00,
2013-06-22 03:43:00,36.3,20.0,29.80,NNW,348,0.0,0.0,52,0.00,,,0.00,weatherlink.com 1.10,2013-06-22 09:43:00,
2013-06-22 03:57:00,36.7,20.0,29.81,NNW,333,0.0,0.0,51,0.00,,,0.00,weatherlink.com 1.10,2013-06-22 09:57:00,
2013-06-22 04:12:00,36.2,19.0,29.81,NNW,338,0.0,2.0,51,0.00,,,0.00,weatherlink.com 1.10,2013-06-22 10:12:00,
2013-06-22 04:27:00,35.5,19.0,29.81,SE,136,0.0,1.0,51,0.00,,,0.00,weatherlink.com 1.10,2013-06-22 10:27:00,
2013-06-22 04:42:00,35.1,20.0,29.81,SE,137,0.0,1.0,55,0.00,,,0.00,weatherlink.com 1.10,2013-06-22 10:42:00,
2013-06-22 04:57:00,35.3,20.0,29.81,SE,134,1.0,2.0,53,0.00,,,0.00,weatherlink.com 1.10,2013-06-22 10:57:00,
2013-06-22 05:12:00,35.1,21.0,29.81,NNW,339,0.0,0.0,56,0.00,,,0.00,weatherlink.com 1.10,2013-06-22 11:12:00,
2013-06-22 05:27:00,34.1,20.0,29.82,NW,308,0.0,3.0,56,0.00,,,0.00,weatherlink.com 1.10,2013-06-22 11:27:00,
2013-06-22 05:42:00,33.4,20.0,29.82,WNW,283,0.0,0.0,59,0.00,,,0.00,weatherlink.com 1.10,2013-06-22 11:42:00,
2013-06-22 05:57:00,32.9,21.0,29.82,WNW,282,0.0,0.0,61,0.00,,,0.00,weatherlink.com 1.10,2013-06-22 11:57:00,
2013-06-22 06:12:00,33.4,20.0,29.82,NW,322,3.0,3.0,58,0.00,,,0.00,weatherlink.com 1.10,2013-06-22 12:12:00,
2013-06-22 06:27:00,33.0,20.0,29.83,NW,320,0.0,0.0,58,0.00,,,0.00,weatherlink.com 1.10,2013-06-22 12:27:00,
2013-06-22 06:42:00,32.0,20.0,29.83,West,278,0.0,0.0,61,0.00,,,0.00,weatherlink.com 1.10,2013-06-22 12:42:00,
2013-06-22 06:57:00,32.8,21.0,29.83,NW,322,0.0,0.0,62,0.00,,,0.00,weatherlink.com 1.10,2013-06-22 12:57:00,
2013-06-22 07:12:00,35.4,20.0,29.83,North,11,0.0,0.0,54,0.00,,,0.00,weatherlink.com 1.10,2013-06-22 13:12:00,
2013-06-22 07:27:00,37.4,22.0,29.83,SW,228,0.0,0.0,54,0.00,,,0.00,weatherlink.com 1.10,2013-06-22 13:27:00,
2013-06-22 07:42:00,40.0,22.0,29.83,SE,145,0.0,0.0,48,0.00,,,0.00,weatherlink.com 1.10,2013-06-22 13:42:00,
2013-06-22 07:57:00,40.4,21.0,29.83,SE,126,1.0,3.0,46,0.00,,,0.00,weatherlink.com 1.10,2013-06-22 13:57:00,
2013-06-22 08:12:00,41.9,21.0,29.82,SE,140,0.0,3.0,43,0.00,,,0.00,weatherlink.com 1.10,2013-06-22 14:12:00,
2013-06-22 08:27:00,44.8,21.0,29.82,South,169,1.0,3.0,39,0.00,,,0.00,weatherlink.com 1.10,2013-06-22 14:27:00,
2013-06-22 08:42:00,45.9,22.0,29.81,SE,128,2.0,3.0,39,0.00,,,0.00,weatherlink.com 1.10,2013-06-22 14:42:00,
2013-06-22 08:57:00,47.9,21.0,29.81,East,94,0.0,4.0,35,0.00,,,0.00,weatherlink.com 1.10,2013-06-22 14:57:00,
2013-06-22 09:12:00,50.6,22.0,29.80,SSW,194,1.0,2.0,32,0.00,,,0.00,weatherlink.com 1.10,2013-06-22 15:12:00,
2013-06-22 09:27:00,52.0,20.0,29.79,ESE,120,1.0,3.0,29,0.00,,,0.00,weatherlink.com 1.10,2013-06-22 15:27:00,
2013-06-22 09:42:00,53.5,22.0,29.78,SE,145,1.0,3.0,29,0.00,,,0.00,weatherlink.com 1.10,2013-06-22 15:42:00,
2013-06-22 09:57:00,54.6,22.0,29.77,SE,125,1.0,4.0,28,0.00,,,0.00,weatherlink.com 1.10,2013-06-22 15:57:00,
2013-06-22 10:13:00,56.5,23.0,29.77,NW,324,0.0,4.0,27,0.00,,,0.00,weatherlink.com 1.10,2013-06-22 16:13:00,
2013-06-22 10:28:00,57.6,23.0,29.76,SSE,153,2.0,5.0,26,0.00,,,0.00,weatherlink.com 1.10,2013-06-22 16:28:00,
2013-06-22 10:43:00,60.8,23.0,29.74,NW,319,4.0,12.0,23,0.00,,,0.00,weatherlink.com 1.10,2013-06-22 16:43:00,
2013-06-22 10:58:00,63.0,24.0,29.74,SSE,160,8.0,11.0,23,0.00,,,0.00,weatherlink.com 1.10,2013-06-22 16:58:00,
2013-06-22 11:13:00,67.7,17.0,29.74,SE,131,2.0,12.0,14,0.00,,,0.00,weatherlink.com 1.10,2013-06-22 17:13:00,